createdAt,value
2022-09-16T00:00:02.201Z,11.00
2022-09-16T00:02:59.061Z,11.00
2022-09-16T00:05:55.880Z,10.90
2022-09-16T00:09:01.058Z,10.90
2022-09-16T00:11:57.873Z,10.90
2022-09-16T00:14:55.861Z,10.90
2022-09-16T00:17:52.643Z,10.90
2022-09-16T00:20:51.789Z,10.90
2022-09-16T00:23:48.636Z,11.00
2022-09-16T00:26:45.457Z,11.10
2022-09-16T00:29:42.259Z,11.10
2022-09-16T00:32:39.043Z,11.20
2022-09-16T00:35:35.834Z,11.10
2022-09-16T00:38:33.064Z,11.10
2022-09-16T00:41:36.167Z,11.30
2022-09-16T00:45:03.747Z,11.30
2022-09-16T00:48:07.264Z,11.30
2022-09-16T00:51:09.264Z,11.30
2022-09-16T00:54:09.923Z,11.30
2022-09-16T00:57:10.864Z,11.20
2022-09-16T01:00:11.573Z,11.00
2022-09-16T01:03:08.601Z,10.90
2022-09-16T01:06:06.353Z,10.90
2022-09-16T01:09:03.753Z,11.00
2022-09-16T01:12:00.579Z,10.90
2022-09-16T01:14:58.454Z,10.90
2022-09-16T01:18:15.097Z,10.90
2022-09-16T01:21:48.450Z,10.80
2022-09-16T01:25:20.039Z,10.90
2022-09-16T01:28:24.825Z,10.90
2022-09-16T01:31:39.721Z,11.00
2022-09-16T01:34:58.348Z,10.90
2022-09-16T01:38:14.958Z,11.00
2022-09-16T01:41:37.754Z,11.00
2022-09-16T01:44:46.741Z,10.90
2022-09-16T01:48:07.329Z,10.80
2022-09-16T01:51:42.132Z,10.90
2022-09-16T01:54:55.212Z,10.90
2022-09-16T01:58:27.533Z,10.80
2022-09-16T02:01:34.111Z,10.90
2022-09-16T02:04:40.672Z,10.90
2022-09-16T02:07:44.234Z,10.90
2022-09-16T02:10:49.856Z,10.80
2022-09-16T02:14:03.549Z,10.80
2022-09-16T02:17:14.779Z,10.90
2022-09-16T02:20:18.775Z,11.00
2022-09-16T02:23:23.936Z,10.90
2022-09-16T02:26:28.138Z,10.80
2022-09-16T02:29:32.157Z,10.80
2022-09-16T02:32:32.267Z,10.80
2022-09-16T02:35:31.419Z,10.80
2022-09-16T02:38:40.764Z,10.80
2022-09-16T02:41:41.598Z,10.80
2022-09-16T02:44:38.580Z,10.80
2022-09-16T02:48:15.946Z,10.80
2022-09-16T02:52:00.171Z,10.80
2022-09-16T02:55:15.416Z,10.80
2022-09-16T02:58:12.341Z,10.90
2022-09-16T03:01:13.543Z,10.90
2022-09-16T03:04:14.314Z,10.90
2022-09-16T03:07:12.608Z,10.80
2022-09-16T03:10:13.167Z,10.80
2022-09-16T03:13:26.465Z,10.80
2022-09-16T03:16:47.061Z,10.70
2022-09-16T03:20:13.945Z,10.70
2022-09-16T03:23:44.876Z,10.70
2022-09-16T03:27:09.744Z,10.70
2022-09-16T03:30:10.704Z,10.70
2022-09-16T03:33:24.289Z,10.70
2022-09-16T03:36:29.054Z,10.80
2022-09-16T03:39:25.873Z,10.80
2022-09-16T03:42:22.701Z,10.80
2022-09-16T03:45:22.255Z,10.80
2022-09-16T03:48:19.057Z,10.80
2022-09-16T03:51:16.127Z,10.80
2022-09-16T03:54:12.920Z,10.80
2022-09-16T03:57:10.349Z,10.70
2022-09-16T04:00:08.653Z,10.70
2022-09-16T04:03:06.046Z,10.70
2022-09-16T04:06:03.307Z,10.70
2022-09-16T04:09:04.394Z,10.80
2022-09-16T04:12:01.440Z,10.70
2022-09-16T04:14:59.529Z,10.80
2022-09-16T04:17:57.673Z,10.80
2022-09-16T04:20:59.106Z,10.80
2022-09-16T04:23:56.076Z,10.90
2022-09-16T04:26:53.462Z,10.90
2022-09-16T04:29:50.257Z,10.90
2022-09-16T04:32:47.136Z,10.90
2022-09-16T04:35:44.001Z,10.90
2022-09-16T04:38:43.411Z,10.80
2022-09-16T04:41:40.209Z,10.70
2022-09-16T04:44:36.989Z,10.70
2022-09-16T04:47:33.926Z,10.70
2022-09-16T04:50:30.739Z,10.80
2022-09-16T04:53:27.676Z,11.00
2022-09-16T04:56:28.477Z,10.90
2022-09-16T04:59:25.388Z,11.00
2022-09-16T05:02:22.212Z,10.90
2022-09-16T05:05:19.127Z,10.80
2022-09-16T05:08:16.102Z,10.80
2022-09-16T05:11:17.299Z,10.90
2022-09-16T05:14:17.513Z,10.80
2022-09-16T05:17:33.116Z,10.90
2022-09-16T05:20:31.109Z,10.80
2022-09-16T05:23:28.442Z,10.80
2022-09-16T05:26:28.828Z,10.80
2022-09-16T05:29:25.618Z,10.80
2022-09-16T05:32:22.456Z,10.80
2022-09-16T05:35:19.265Z,10.90
2022-09-16T05:38:16.168Z,10.90
2022-09-16T05:41:14.573Z,10.90
2022-09-16T05:44:11.505Z,10.90
2022-09-16T05:47:08.352Z,11.00
2022-09-16T05:50:05.698Z,11.00
2022-09-16T05:53:02.499Z,11.00
2022-09-16T05:56:04.896Z,11.00
2022-09-16T05:59:01.809Z,11.00
2022-09-16T06:01:58.710Z,11.10
2022-09-16T06:04:55.540Z,11.00
2022-09-16T06:07:56.997Z,11.00
2022-09-16T06:10:53.853Z,11.00
2022-09-16T06:13:56.301Z,11.00
2022-09-16T06:16:53.116Z,11.10
2022-09-16T06:19:49.908Z,11.10
2022-09-16T06:22:46.845Z,11.20
2022-09-16T06:25:44.212Z,11.20
2022-09-16T06:28:41.498Z,11.20
2022-09-16T06:31:39.081Z,11.30
2022-09-16T06:34:36.007Z,11.20
2022-09-16T06:37:32.873Z,11.10
2022-09-16T06:40:30.372Z,11.10
2022-09-16T06:43:28.297Z,11.20
2022-09-16T06:46:27.721Z,11.20
2022-09-16T06:49:24.559Z,11.20
2022-09-16T06:52:21.400Z,11.20
2022-09-16T06:55:18.222Z,11.20
2022-09-16T06:58:15.073Z,11.30
2022-09-16T07:01:18.646Z,11.30
2022-09-16T07:04:15.466Z,11.30
2022-09-16T07:07:23.863Z,11.30
2022-09-16T07:10:20.684Z,11.20
2022-09-16T07:13:25.659Z,11.20
2022-09-16T07:16:25.402Z,11.20
2022-09-16T07:19:22.329Z,11.30
2022-09-16T07:22:19.654Z,11.20
2022-09-16T07:25:17.040Z,11.30
2022-09-16T07:28:13.827Z,11.50
2022-09-16T07:31:26.222Z,11.50
2022-09-16T07:34:23.115Z,11.50
2022-09-16T07:37:21.089Z,11.50
2022-09-16T07:40:18.706Z,11.50
2022-09-16T07:43:15.521Z,11.60
2022-09-16T07:46:16.591Z,11.60
2022-09-16T07:49:14.976Z,11.60
2022-09-16T07:52:11.781Z,11.50
2022-09-16T07:55:08.956Z,11.60
2022-09-16T07:58:05.851Z,11.80
2022-09-16T08:01:04.852Z,11.80
2022-09-16T08:04:03.006Z,11.90
2022-09-16T08:06:59.870Z,11.90
2022-09-16T08:09:56.696Z,12.00
2022-09-16T08:12:53.538Z,12.10
2022-09-16T08:15:53.678Z,12.20
2022-09-16T08:18:58.089Z,12.20
2022-09-16T08:21:54.968Z,12.20
2022-09-16T08:24:51.813Z,12.30
2022-09-16T08:27:51.591Z,12.50
2022-09-16T08:30:52.670Z,12.70
2022-09-16T08:33:50.134Z,12.80
2022-09-16T08:36:46.995Z,12.70
2022-09-16T08:39:44.037Z,12.80
2022-09-16T08:43:19.194Z,13.00
2022-09-16T08:46:54.722Z,13.30
2022-09-16T08:49:53.142Z,13.50
2022-09-16T08:52:53.121Z,13.40
2022-09-16T08:55:51.535Z,13.70
2022-09-16T08:58:56.330Z,13.60
2022-09-16T09:02:21.159Z,13.70
2022-09-16T09:05:50.125Z,13.90
2022-09-16T09:09:24.752Z,14.10
2022-09-16T09:12:49.170Z,14.20
2022-09-16T09:16:17.212Z,14.70
2022-09-16T09:19:47.764Z,14.60
2022-09-16T09:23:07.455Z,14.50
2022-09-16T09:26:41.949Z,14.00
2022-09-16T09:29:51.176Z,14.40
2022-09-16T09:33:45.446Z,14.40
2022-09-16T09:36:59.964Z,14.80
2022-09-16T09:40:35.406Z,14.20
2022-09-16T09:43:45.323Z,13.90
2022-09-16T09:46:48.367Z,14.00
2022-09-16T09:49:55.042Z,13.90
2022-09-16T09:53:13.006Z,14.50
2022-09-16T09:56:44.794Z,15.10
2022-09-16T09:59:52.523Z,14.80
2022-09-16T10:02:50.166Z,14.40
2022-09-16T10:05:48.099Z,14.10
2022-09-16T10:08:54.086Z,14.00
2022-09-16T10:11:57.734Z,13.80
2022-09-16T10:14:54.540Z,13.80
2022-09-16T10:17:53.939Z,13.50
2022-09-16T10:21:04.886Z,13.70
2022-09-16T10:24:02.180Z,14.60
2022-09-16T10:27:01.593Z,15.30
2022-09-16T10:30:19.686Z,15.30
2022-09-16T10:33:29.405Z,14.90
2022-09-16T10:36:33.225Z,14.90
2022-09-16T10:39:31.865Z,14.80
2022-09-16T10:42:29.322Z,14.50
2022-09-16T10:45:31.079Z,14.40
2022-09-16T10:48:31.183Z,14.20
2022-09-16T10:51:31.326Z,14.00
2022-09-16T10:54:28.604Z,13.80
2022-09-16T10:57:32.305Z,14.00
2022-09-16T11:00:37.107Z,14.80
2022-09-16T11:04:05.192Z,15.20
2022-09-16T11:07:14.224Z,15.30
2022-09-16T11:10:30.503Z,15.60
2022-09-16T11:14:08.523Z,15.90
2022-09-16T11:17:35.118Z,16.00
2022-09-16T11:21:31.124Z,15.60
2022-09-16T11:24:46.022Z,15.00
2022-09-16T11:28:27.195Z,14.70
2022-09-16T11:31:57.849Z,14.30
2022-09-16T11:35:00.449Z,15.00
2022-09-16T11:38:42.388Z,15.60
2022-09-16T11:41:50.011Z,15.40
2022-09-16T11:45:09.157Z,15.80
2022-09-16T11:48:54.455Z,16.40
2022-09-16T11:52:52.455Z,16.40
2022-09-16T11:56:06.257Z,16.00
2022-09-16T11:59:44.014Z,15.60
2022-09-16T12:03:06.121Z,15.40
2022-09-16T12:06:15.090Z,15.30
2022-09-16T12:09:20.433Z,15.30
2022-09-16T12:12:28.780Z,15.70
2022-09-16T12:15:51.152Z,16.00
2022-09-16T12:18:57.605Z,15.70
2022-09-16T12:22:06.502Z,15.30
2022-09-16T12:25:19.096Z,15.40
2022-09-16T12:28:40.034Z,15.20
2022-09-16T12:32:05.171Z,14.90
2022-09-16T12:35:12.308Z,14.80
2022-09-16T12:38:20.940Z,15.00
2022-09-16T12:42:01.805Z,14.50
2022-09-16T12:45:40.939Z,14.60
2022-09-16T12:49:12.640Z,14.20
2022-09-16T12:52:32.512Z,14.20
2022-09-16T12:56:34.198Z,14.20
2022-09-16T13:00:12.128Z,14.00
2022-09-16T13:03:24.013Z,14.10
2022-09-16T13:06:33.267Z,14.30
2022-09-16T13:09:36.703Z,14.70
2022-09-16T13:12:41.392Z,15.10
2022-09-16T13:15:41.888Z,15.10
2022-09-16T13:18:49.075Z,15.30
2022-09-16T13:21:47.296Z,15.40
2022-09-16T13:24:51.171Z,15.60
2022-09-16T13:28:33.361Z,15.70
2022-09-16T13:31:34.191Z,15.50
2022-09-16T13:34:31.693Z,15.00
2022-09-16T13:37:28.841Z,14.80
2022-09-16T13:40:28.977Z,14.80
2022-09-16T13:43:42.197Z,14.60
2022-09-16T13:46:39.129Z,14.50
2022-09-16T13:49:46.384Z,14.70
2022-09-16T13:52:44.296Z,15.50
2022-09-16T13:55:42.727Z,15.40
2022-09-16T13:59:26.650Z,15.00
2022-09-16T14:02:51.900Z,15.00
2022-09-16T14:06:40.824Z,14.60
2022-09-16T14:09:55.030Z,14.70
2022-09-16T14:13:18.653Z,14.30
2022-09-16T14:16:29.244Z,14.20
2022-09-16T14:19:36.614Z,14.10
2022-09-16T14:22:33.767Z,14.20
2022-09-16T14:25:36.773Z,14.00
2022-09-16T14:28:34.896Z,14.10
2022-09-16T14:31:34.496Z,13.80
2022-09-16T14:34:36.590Z,13.80
2022-09-16T14:37:34.666Z,14.10
2022-09-16T14:40:31.950Z,14.10
2022-09-16T14:43:28.940Z,14.20
2022-09-16T14:46:26.583Z,14.20
2022-09-16T14:49:24.403Z,14.30
2022-09-16T14:52:26.138Z,14.40
2022-09-16T14:55:28.500Z,14.40
2022-09-16T14:58:30.874Z,14.30
2022-09-16T15:01:28.287Z,14.40
2022-09-16T15:04:32.655Z,14.40
2022-09-16T15:07:36.041Z,14.30
2022-09-16T15:10:44.615Z,14.40
2022-09-16T15:13:49.050Z,14.40
2022-09-16T15:16:50.373Z,14.50
2022-09-16T15:20:05.813Z,14.30
2022-09-16T15:23:03.933Z,14.30
2022-09-16T15:26:27.151Z,14.30
2022-09-16T15:29:23.836Z,14.30
2022-09-16T15:32:24.095Z,14.30
2022-09-16T15:35:32.146Z,14.50
2022-09-16T15:38:31.180Z,14.60
2022-09-16T15:41:28.505Z,14.70
2022-09-16T15:44:28.496Z,14.40
2022-09-16T15:47:35.913Z,14.30
2022-09-16T15:50:45.384Z,14.20
2022-09-16T15:53:46.964Z,14.20
2022-09-16T15:57:04.478Z,14.10
2022-09-16T16:00:16.138Z,14.00
2022-09-16T16:03:21.270Z,14.20
2022-09-16T16:06:18.072Z,14.20
2022-09-16T16:09:44.040Z,14.30
2022-09-16T16:12:41.531Z,14.20
2022-09-16T16:15:40.032Z,14.10
2022-09-16T16:18:38.203Z,13.90
2022-09-16T16:21:45.743Z,13.90
2022-09-16T16:24:42.698Z,13.80
2022-09-16T16:27:40.265Z,13.70
2022-09-16T16:30:37.059Z,13.80
2022-09-16T16:33:34.756Z,13.90
2022-09-16T16:36:31.568Z,13.80
2022-09-16T16:39:28.670Z,13.60
2022-09-16T16:42:25.738Z,13.60
2022-09-16T16:45:22.890Z,13.60
2022-09-16T16:48:19.912Z,13.50
2022-09-16T16:51:16.752Z,13.60
2022-09-16T16:54:13.680Z,13.60
2022-09-16T16:57:11.758Z,13.50
2022-09-16T17:00:09.644Z,13.50
2022-09-16T17:03:06.496Z,13.40
2022-09-16T17:06:03.680Z,13.40
2022-09-16T17:09:01.143Z,13.40
2022-09-16T17:12:00.544Z,13.30
2022-09-16T17:14:57.339Z,13.30
2022-09-16T17:17:54.145Z,13.30
2022-09-16T17:20:50.966Z,13.20
2022-09-16T17:23:48.520Z,13.00
2022-09-16T17:26:45.878Z,12.80
2022-09-16T17:29:42.693Z,12.70
2022-09-16T17:32:39.566Z,12.80
2022-09-16T17:35:37.389Z,12.70
2022-09-16T17:38:35.123Z,12.60
2022-09-16T17:41:33.037Z,12.60
2022-09-16T17:44:29.825Z,12.60
2022-09-16T17:47:27.230Z,12.60
2022-09-16T17:50:24.049Z,12.50
2022-09-16T17:53:21.397Z,12.40
2022-09-16T17:56:18.797Z,12.40
2022-09-16T17:59:18.619Z,12.30
2022-09-16T18:02:16.359Z,12.30
2022-09-16T18:05:14.430Z,12.10
2022-09-16T18:08:11.268Z,12.00
2022-09-16T18:11:10.245Z,12.00
2022-09-16T18:14:10.747Z,12.00
2022-09-16T18:17:07.619Z,12.00
2022-09-16T18:20:07.145Z,11.90
2022-09-16T18:23:04.229Z,11.90
2022-09-16T18:26:06.561Z,11.80
2022-09-16T18:29:11.730Z,11.70
2022-09-16T18:32:08.968Z,11.50
2022-09-16T18:35:06.518Z,11.50
2022-09-16T18:38:07.206Z,11.40
2022-09-16T18:41:09.589Z,11.30
2022-09-16T18:44:14.794Z,11.20
2022-09-16T18:47:11.642Z,11.20
2022-09-16T18:50:08.967Z,11.10
2022-09-16T18:53:05.841Z,11.00
2022-09-16T18:56:02.823Z,11.10
2022-09-16T18:59:22.178Z,11.00
2022-09-16T19:02:20.250Z,10.90
2022-09-16T19:05:18.950Z,11.10
2022-09-16T19:08:15.777Z,11.00
2022-09-16T19:11:13.210Z,10.80
2022-09-16T19:14:15.452Z,10.90
2022-09-16T19:17:12.920Z,10.70
2022-09-16T19:20:09.964Z,10.60
2022-09-16T19:23:06.742Z,10.50
2022-09-16T19:26:04.871Z,10.50
2022-09-16T19:29:01.911Z,10.30
2022-09-16T19:31:58.917Z,10.30
2022-09-16T19:34:55.763Z,10.30
2022-09-16T19:37:52.589Z,10.30
2022-09-16T19:40:50.529Z,10.20
2022-09-16T19:43:47.455Z,10.20
2022-09-16T19:46:46.743Z,9.90
2022-09-16T19:49:43.552Z,9.90
2022-09-16T19:52:40.825Z,9.80
2022-09-16T19:55:37.621Z,9.70
2022-09-16T19:58:36.388Z,9.60
2022-09-16T20:01:35.596Z,9.80
2022-09-16T20:04:32.425Z,9.70
2022-09-16T20:07:30.631Z,9.60
2022-09-16T20:10:28.182Z,9.50
2022-09-16T20:13:24.990Z,9.50
2022-09-16T20:16:26.274Z,9.50
2022-09-16T20:19:23.104Z,9.40
2022-09-16T20:22:19.911Z,9.50
2022-09-16T20:25:23.035Z,9.30
2022-09-16T20:28:21.707Z,9.20
2022-09-16T20:31:26.206Z,9.20
2022-09-16T20:34:24.213Z,9.00
2022-09-16T20:37:21.840Z,9.00
2022-09-16T20:40:18.738Z,8.90
2022-09-16T20:43:15.862Z,9.00
2022-09-16T20:46:19.090Z,9.10
2022-09-16T20:49:20.015Z,9.10
2022-09-16T20:52:16.944Z,9.20
2022-09-16T20:55:14.079Z,9.20
2022-09-16T20:58:10.878Z,9.10
2022-09-16T21:01:18.078Z,9.20
2022-09-16T21:04:19.646Z,9.40
2022-09-16T21:07:16.507Z,9.60
2022-09-16T21:10:13.363Z,9.60
2022-09-16T21:13:10.164Z,9.60
2022-09-16T21:16:09.721Z,9.70
2022-09-16T21:19:12.662Z,9.80
2022-09-16T21:22:09.447Z,9.80
2022-09-16T21:25:06.569Z,9.80
2022-09-16T21:28:03.365Z,9.70
2022-09-16T21:31:10.598Z,9.70
2022-09-16T21:34:13.562Z,9.60
2022-09-16T21:37:10.360Z,9.60
2022-09-16T21:40:09.764Z,9.70
2022-09-16T21:43:06.888Z,9.60
2022-09-16T21:46:04.404Z,9.50
2022-09-16T21:49:03.284Z,9.50
2022-09-16T21:52:00.101Z,9.50
2022-09-16T21:54:56.883Z,9.70
2022-09-16T21:57:53.716Z,9.70
2022-09-16T22:00:50.621Z,9.70
2022-09-16T22:03:55.042Z,9.70
2022-09-16T22:06:54.792Z,9.80
2022-09-16T22:09:53.163Z,9.80
2022-09-16T22:12:49.948Z,10.00
2022-09-16T22:15:52.887Z,10.00
2022-09-16T22:18:49.674Z,10.00
2022-09-16T22:21:50.028Z,9.90
2022-09-16T22:24:47.006Z,10.00
2022-09-16T22:27:43.909Z,10.00
2022-09-16T22:30:41.044Z,9.80
2022-09-16T22:33:40.680Z,9.80
2022-09-16T22:36:38.937Z,9.80
2022-09-16T22:39:35.770Z,9.90
2022-09-16T22:42:32.591Z,9.90
2022-09-16T22:45:29.456Z,9.80
2022-09-16T22:48:26.226Z,9.80
2022-09-16T22:51:23.322Z,9.70
2022-09-16T22:54:20.223Z,9.80
2022-09-16T22:57:17.334Z,9.70
2022-09-16T23:00:14.814Z,9.60
2022-09-16T23:03:11.638Z,9.60
2022-09-16T23:06:12.528Z,9.70
2022-09-16T23:09:11.914Z,9.70
2022-09-16T23:12:08.712Z,9.70
2022-09-16T23:15:06.035Z,9.80
2022-09-16T23:18:02.812Z,9.60
2022-09-16T23:21:09.058Z,9.70
2022-09-16T23:24:08.688Z,9.70
2022-09-16T23:27:05.891Z,9.70
2022-09-16T23:30:02.945Z,9.80
2022-09-16T23:32:59.732Z,9.80
2022-09-16T23:35:56.539Z,9.90
2022-09-16T23:38:54.915Z,9.80
2022-09-16T23:41:52.414Z,9.90
2022-09-16T23:44:49.217Z,9.80
2022-09-16T23:47:46.011Z,9.80
2022-09-16T23:50:44.355Z,9.80
2022-09-16T23:53:45.249Z,9.90
2022-09-16T23:56:42.696Z,9.80
2022-09-16T23:59:39.545Z,9.70
